createdAt,value
2022-07-29T00:04:14.125Z,91.12
2022-07-29T00:09:17.590Z,91.14
2022-07-29T00:14:20.880Z,91.24
2022-07-29T00:19:24.216Z,91.50
2022-07-29T00:24:28.778Z,91.16
2022-07-29T00:29:34.182Z,91.78
2022-07-29T00:34:56.659Z,92.05
2022-07-29T00:40:00.072Z,92.99
2022-07-29T00:45:03.856Z,93.20
2022-07-29T00:50:09.791Z,92.86
2022-07-29T00:55:16.058Z,93.32
2022-07-29T01:00:23.240Z,93.59
2022-07-29T01:05:48.458Z,93.24
2022-07-29T01:10:53.727Z,93.25
2022-07-29T01:16:04.873Z,93.05
2022-07-29T01:21:52.586Z,92.91
2022-07-29T01:27:10.179Z,92.64
2022-07-29T01:32:27.982Z,92.43
2022-07-29T01:37:51.675Z,92.49
2022-07-29T01:42:58.743Z,92.35
2022-07-29T01:48:08.097Z,92.15
2022-07-29T01:53:14.224Z,92.55
2022-07-29T01:58:20.574Z,92.53
2022-07-29T02:03:24.962Z,92.41
2022-07-29T02:08:30.607Z,92.04
2022-07-29T02:13:36.972Z,92.11
2022-07-29T02:18:43.246Z,92.08
2022-07-29T02:23:51.355Z,91.93
2022-07-29T02:28:58.683Z,92.14
2022-07-29T02:34:04.942Z,92.73
2022-07-29T02:39:10.821Z,93.07
2022-07-29T02:44:23.051Z,93.32
2022-07-29T02:49:40.229Z,94.06
2022-07-29T02:54:48.665Z,94.22
2022-07-29T02:59:55.877Z,93.77
2022-07-29T03:05:01.088Z,93.78
2022-07-29T03:10:07.696Z,93.81
2022-07-29T03:15:17.622Z,93.80
2022-07-29T03:20:22.050Z,93.82
2022-07-29T03:25:28.516Z,94.01
2022-07-29T03:30:32.188Z,94.11
2022-07-29T03:35:35.458Z,93.83
2022-07-29T03:40:45.088Z,93.41
2022-07-29T03:45:54.742Z,92.77
2022-07-29T03:50:58.123Z,90.03
2022-07-29T03:56:03.780Z,90.18
2022-07-29T04:01:07.474Z,87.60
2022-07-29T04:06:10.663Z,83.76
2022-07-29T04:11:14.155Z,80.25
2022-07-29T04:16:17.461Z,77.23
2022-07-29T04:21:20.854Z,75.07
2022-07-29T04:26:24.402Z,70.31
2022-07-29T04:31:27.881Z,65.98
2022-07-29T04:36:31.205Z,54.80
2022-07-29T04:41:34.857Z,48.21
2022-07-29T04:46:38.507Z,43.25
2022-07-29T04:51:41.698Z,40.38
2022-07-29T04:56:45.298Z,42.37
2022-07-29T05:01:48.613Z,39.80
2022-07-29T05:06:51.893Z,36.81
2022-07-29T05:11:55.144Z,34.11
2022-07-29T05:16:58.411Z,33.66
2022-07-29T05:22:01.733Z,33.78
2022-07-29T05:27:05.138Z,30.43
2022-07-29T05:32:08.732Z,30.62
2022-07-29T05:37:12.243Z,30.39
2022-07-29T05:42:15.664Z,29.72
2022-07-29T05:47:19.093Z,29.79
2022-07-29T05:52:22.978Z,26.91
2022-07-29T05:57:26.700Z,28.21
2022-07-29T06:02:29.938Z,29.53
2022-07-29T06:07:33.951Z,28.95
2022-07-29T06:12:39.751Z,28.80
2022-07-29T06:18:00.095Z,28.88
2022-07-29T06:23:05.823Z,28.34
2022-07-29T06:28:09.114Z,28.56
2022-07-29T06:33:18.068Z,29.82
2022-07-29T06:38:30.747Z,29.82
2022-07-29T06:43:50.152Z,30.22
2022-07-29T06:48:55.531Z,30.20
2022-07-29T06:54:02.243Z,30.71
2022-07-29T06:59:16.842Z,30.50
2022-07-29T07:04:20.811Z,31.01
2022-07-29T07:09:24.736Z,29.23
2022-07-29T07:14:43.771Z,28.09
2022-07-29T07:19:47.030Z,28.09
2022-07-29T07:24:50.278Z,27.79
2022-07-29T07:29:53.552Z,27.33
2022-07-29T07:34:58.227Z,26.65
2022-07-29T07:40:03.336Z,25.09
2022-07-29T07:45:16.609Z,25.04
2022-07-29T07:50:20.055Z,24.56
2022-07-29T07:55:23.413Z,25.15
2022-07-29T08:00:26.756Z,25.63
2022-07-29T08:05:30.039Z,25.68
2022-07-29T08:10:52.355Z,25.52
2022-07-29T08:15:59.286Z,25.59
2022-07-29T08:21:02.843Z,24.07
2022-07-29T08:26:11.552Z,23.08
2022-07-29T08:31:15.712Z,23.89
2022-07-29T08:36:19.325Z,24.10
2022-07-29T08:41:23.247Z,24.15
2022-07-29T08:46:26.938Z,23.46
2022-07-29T08:51:33.080Z,22.83
2022-07-29T08:56:36.903Z,23.57
2022-07-29T09:01:42.520Z,23.62
2022-07-29T09:06:52.760Z,24.55
2022-07-29T09:11:56.384Z,23.74
2022-07-29T09:17:01.324Z,23.36
2022-07-29T09:22:07.218Z,22.73
2022-07-29T09:27:22.490Z,22.61
2022-07-29T09:32:26.110Z,22.69
2022-07-29T09:37:30.426Z,22.58
2022-07-29T09:42:35.128Z,23.45
2022-07-29T09:47:51.907Z,23.90
2022-07-29T09:52:55.149Z,25.03
2022-07-29T09:58:18.836Z,28.02
2022-07-29T10:03:54.103Z,31.28
2022-07-29T10:09:11.859Z,33.36
2022-07-29T10:14:16.479Z,33.91
2022-07-29T10:19:20.069Z,34.61
2022-07-29T10:24:23.446Z,35.48
2022-07-29T10:29:28.107Z,35.30
2022-07-29T10:35:04.229Z,35.25
2022-07-29T10:40:48.493Z,35.52
2022-07-29T10:45:58.677Z,35.70
2022-07-29T10:51:03.914Z,36.41
2022-07-29T10:56:32.380Z,38.11
2022-07-29T11:01:37.034Z,37.83
2022-07-29T11:06:59.823Z,37.30
2022-07-29T11:12:39.764Z,36.93
2022-07-29T11:17:55.049Z,36.63
2022-07-29T11:23:26.735Z,36.81
2022-07-29T11:28:31.419Z,36.98
2022-07-29T11:33:55.842Z,36.55
2022-07-29T11:39:37.079Z,36.52
2022-07-29T11:44:58.556Z,36.57
2022-07-29T11:50:11.209Z,36.70
2022-07-29T11:55:17.345Z,36.34
2022-07-29T12:00:34.856Z,37.09
2022-07-29T12:05:48.145Z,37.58
2022-07-29T12:10:52.904Z,38.26
2022-07-29T12:16:00.086Z,38.29
2022-07-29T12:21:06.857Z,37.69
2022-07-29T12:26:10.843Z,37.48
2022-07-29T12:31:43.848Z,38.25
2022-07-29T12:36:39.925Z,38.48
2022-07-29T12:41:43.725Z,38.08
2022-07-29T12:46:49.820Z,37.74
2022-07-29T12:51:53.083Z,37.16
2022-07-29T12:57:01.700Z,36.53
2022-07-29T13:02:05.837Z,36.38
2022-07-29T13:07:10.471Z,36.32
2022-07-29T13:12:15.502Z,35.98
2022-07-29T13:17:24.164Z,36.10
2022-07-29T13:22:27.842Z,36.15
2022-07-29T13:27:33.838Z,36.80
2022-07-29T13:32:39.193Z,36.76
2022-07-29T13:37:42.702Z,37.19
2022-07-29T13:42:46.641Z,37.65
2022-07-29T13:47:50.641Z,37.52
2022-07-29T13:52:54.429Z,36.94
2022-07-29T13:57:58.043Z,37.31
2022-07-29T14:03:01.752Z,37.26
2022-07-29T14:08:05.514Z,37.46
2022-07-29T14:13:24.579Z,37.57
2022-07-29T14:18:29.237Z,38.02
2022-07-29T14:23:32.613Z,38.31
2022-07-29T14:28:39.011Z,38.65
2022-07-29T14:33:46.249Z,38.50
2022-07-29T14:38:54.119Z,38.34
2022-07-29T14:43:57.624Z,38.41
2022-07-29T14:49:04.070Z,37.85
2022-07-29T14:54:10.818Z,38.02
2022-07-29T14:59:16.701Z,38.19
2022-07-29T15:04:20.263Z,37.93
2022-07-29T15:09:25.537Z,38.23
2022-07-29T15:14:29.200Z,38.79
2022-07-29T15:19:32.863Z,39.35
2022-07-29T15:24:36.413Z,39.43
2022-07-29T15:29:40.495Z,39.86
2022-07-29T15:34:46.486Z,39.68
2022-07-29T15:39:55.024Z,40.08
2022-07-29T15:45:10.933Z,40.27
2022-07-29T15:50:20.468Z,40.28
2022-07-29T15:55:24.659Z,40.16
2022-07-29T16:00:28.652Z,39.83
2022-07-29T16:05:32.881Z,39.73
2022-07-29T16:10:39.368Z,39.74
2022-07-29T16:16:01.997Z,39.64
2022-07-29T16:21:07.783Z,40.30
2022-07-29T16:26:14.378Z,40.73
2022-07-29T16:31:18.893Z,40.84
2022-07-29T16:36:22.311Z,41.12
2022-07-29T16:41:29.852Z,41.31
2022-07-29T16:46:37.863Z,41.51
2022-07-29T16:51:44.525Z,41.80
2022-07-29T16:56:47.939Z,42.29
2022-07-29T17:01:51.235Z,42.66
2022-07-29T17:06:57.595Z,42.90
2022-07-29T17:12:01.368Z,43.01
2022-07-29T17:17:05.729Z,43.22
2022-07-29T17:22:21.911Z,43.08
2022-07-29T17:27:26.970Z,43.03
2022-07-29T17:32:36.973Z,43.25
2022-07-29T17:37:40.425Z,43.45
2022-07-29T17:42:43.983Z,43.95
2022-07-29T17:47:47.371Z,44.37
2022-07-29T17:52:50.806Z,44.90
2022-07-29T17:57:57.192Z,45.11
2022-07-29T18:03:03.545Z,46.15
2022-07-29T18:08:10.291Z,46.48
2022-07-29T18:13:14.110Z,46.97
2022-07-29T18:18:19.484Z,47.88
2022-07-29T18:23:22.851Z,47.73
2022-07-29T18:28:26.100Z,48.32
2022-07-29T18:33:29.810Z,48.74
2022-07-29T18:38:35.743Z,49.57
2022-07-29T18:43:40.410Z,50.14
2022-07-29T18:48:44.943Z,51.25
2022-07-29T18:53:52.813Z,51.79
2022-07-29T18:58:56.779Z,52.21
2022-07-29T19:04:00.816Z,53.37
2022-07-29T19:09:04.780Z,53.70
2022-07-29T19:14:08.410Z,54.84
2022-07-29T19:19:12.195Z,55.75
2022-07-29T19:24:15.876Z,56.26
2022-07-29T19:29:19.578Z,55.92
2022-07-29T19:34:22.806Z,57.47
2022-07-29T19:39:34.705Z,58.02
2022-07-29T19:44:39.074Z,59.09
2022-07-29T19:49:42.587Z,61.35
